Time;durP1;ratioP1;P1;durP2;ratioP2;P2;SDS_P1;SDS_P2;PMS_P1;PMS_P2;Temp;Humidity;BMP_temperature;BMP_pressure;BME280_temperature;BME280_humidity;BME280_pressure;Samples;Min_cycle;Max_cycle;Signal;HPM_P1;HPM_P2
2023/03/11 00:02:26;;;;;;;;;;;2.60;1.00;;;;;;5074010;28;19912;-84
2023/03/11 00:05:14;;;;;;;;;;;2.60;1.00;;;;;;5056255;28;19908;-84
2023/03/11 00:07:44;;;;;;;;;;;2.70;1.00;;;;;;5071144;28;19912;-82
2023/03/11 00:13:15;;;;;;;;;;;2.80;1.00;;;;;;5092744;28;19915;-79
2023/03/11 00:15:56;;;;;;;;;;;2.70;1.00;;;;;;5087316;28;19955;-78
2023/03/11 00:18:28;;;;;;;;;;;2.70;1.00;;;;;;5093549;28;19955;-77
2023/03/11 00:20:55;;;;;;;;;;;3.30;1.00;;;;;;5086448;28;19909;-78
2023/03/11 00:23:21;;;;;;;;;;;2.80;1.00;;;;;;5074789;28;19918;-79
2023/03/11 00:25:50;;;;;;;;;;;2.70;1.00;;;;;;5089898;28;20352;-78
2023/03/11 00:28:16;;;;;;;;;;;2.70;1.00;;;;;;5093963;28;19948;-79
2023/03/11 00:33:56;;;;;;;;;;;2.80;1.00;;;;;;5093187;28;19938;-78
2023/03/11 00:36:50;;;;;;;;;;;2.70;1.00;;;;;;5092039;28;19908;-79
2023/03/11 00:39:26;;;;;;;;;;;2.70;1.00;;;;;;5085554;28;19915;-77
2023/03/11 00:41:56;;;;;;;;;;;2.80;1.00;;;;;;5081137;28;19912;-78
2023/03/11 00:44:26;;;;;;;;;;;2.70;1.00;;;;;;5093753;28;20007;-78
2023/03/11 00:46:51;;;;;;;;;;;2.80;1.00;;;;;;5093985;28;19915;-79
2023/03/11 00:49:17;;;;;;;;;;;2.80;1.00;;;;;;5097310;28;19920;-78
2023/03/11 00:51:44;;;;;;;;;;;2.80;1.00;;;;;;5095434;28;19957;-78
2023/03/11 00:54:38;;;;;;;;;;;2.80;1.00;;;;;;5097885;28;19958;-78
2023/03/11 00:57:08;;;;;;;;;;;2.80;1.00;;;;;;5097191;28;19915;-78
2023/03/11 00:59:44;;;;;;;;;;;2.80;1.00;;;;;;5097656;28;19962;-78
2023/03/11 01:02:10;;;;;;;;;;;2.80;1.00;;;;;;5077984;28;19908;-78
2023/03/11 01:04:38;;;;;;;;;;;2.80;1.00;;;;;;5078166;28;19919;-78
2023/03/11 01:07:08;;;;;;;;;;;2.70;1.00;;;;;;5096885;28;19954;-78
2023/03/11 01:09:44;;;;;;;;;;;2.70;1.00;;;;;;5077905;28;19912;-78
2023/03/11 01:12:20;;;;;;;;;;;2.70;1.00;;;;;;5096458;28;19912;-78
2023/03/11 01:14:56;;;;;;;;;;;2.70;1.00;;;;;;5068493;28;19912;-78
2023/03/11 01:17:32;;;;;;;;;;;2.70;1.00;;;;;;5096991;28;19908;-78
2023/03/11 01:19:58;;;;;;;;;;;2.60;1.00;;;;;;5078988;28;19909;-78
2023/03/11 01:22:44;;;;;;;;;;;2.50;1.00;;;;;;5096632;28;19935;-79
2023/03/11 01:25:15;;;;;;;;;;;2.50;1.00;;;;;;5096528;28;19957;-78
2023/03/11 01:28:02;;;;;;;;;;;2.50;1.00;;;;;;5086141;28;19916;-78
2023/03/11 01:30:33;;;;;;;;;;;2.50;1.00;;;;;;5079021;28;19919;-78
2023/03/11 01:33:16;;;;;;;;;;;2.50;1.00;;;;;;5078584;28;19957;-78
2023/03/11 01:35:44;;;;;;;;;;;2.40;1.00;;;;;;5085045;28;19998;-78
2023/03/11 01:38:10;;;;;;;;;;;2.40;1.00;;;;;;5096611;28;20343;-78
2023/03/11 01:40:38;;;;;;;;;;;2.40;1.00;;;;;;5069548;28;20268;-77
2023/03/11 01:43:40;;;;;;;;;;;2.30;1.00;;;;;;5077234;28;19912;-78
2023/03/11 01:46:26;;;;;;;;;;;2.40;1.00;;;;;;5014551;28;19924;-84
2023/03/11 01:48:55;;;;;;;;;;;2.40;1.00;;;;;;5014041;28;19918;-84
2023/03/11 01:51:24;;;;;;;;;;;2.40;1.00;;;;;;5014214;28;20016;-84
2023/03/11 01:54:09;;;;;;;;;;;2.30;1.00;;;;;;5014537;28;20363;-83
2023/03/11 02:02:58;;;;;;;;;;;2.10;1.00;;;;;;5014021;28;20451;-84
2023/03/11 02:05:56;;;;;;;;;;;2.10;1.00;;;;;;4997997;28;19941;-83
2023/03/11 02:08:46;;;;;;;;;;;2.10;1.00;;;;;;5013609;28;19924;-84
2023/03/11 02:11:16;;;;;;;;;;;2.10;1.00;;;;;;5013590;28;19921;-84
2023/03/11 02:13:45;;;;;;;;;;;2.20;1.00;;;;;;5006167;28;19955;-85
2023/03/11 02:19:52;;;;;;;;;;;2.30;1.00;;;;;;5011572;28;20317;-84
2023/03/11 02:22:20;;;;;;;;;;;2.40;1.00;;;;;;4997469;28;20312;-84
2023/03/11 02:25:23;;;;;;;;;;;2.50;1.00;;;;;;5013369;28;19910;-84
2023/03/11 02:28:14;;;;;;;;;;;2.50;1.00;;;;;;4936540;29;20279;-84
2023/03/11 02:30:42;;;;;;;;;;;2.40;1.00;;;;;;4917235;29;19927;-78
2023/03/11 02:33:22;;;;;;;;;;;2.40;1.00;;;;;;4930831;29;19958;-78
2023/03/11 02:38:50;;;;;;;;;;;2.40;1.00;;;;;;4898125;29;19964;-79
2023/03/11 02:41:27;;;;;;;;;;;2.40;1.00;;;;;;4913609;29;20290;-77
2023/03/11 02:43:52;;;;;;;;;;;2.40;1.00;;;;;;4916515;29;19911;-78
2023/03/11 02:46:20;;;;;;;;;;;2.30;1.00;;;;;;4932277;29;20116;-78
2023/03/11 02:48:46;;;;;;;;;;;2.30;1.00;;;;;;4932952;29;19919;-79
2023/03/11 02:51:12;;;;;;;;;;;2.30;1.00;;;;;;4900597;29;19926;-77
2023/03/11 02:53:42;;;;;;;;;;;2.30;1.00;;;;;;4982135;28;19945;-77
2023/03/11 02:56:08;;;;;;;;;;;2.30;1.00;;;;;;5008126;28;20053;-78
2023/03/11 02:58:50;;;;;;;;;;;2.20;1.00;;;;;;4991454;28;19909;-77
2023/03/11 03:01:26;;;;;;;;;;;2.30;1.00;;;;;;5002160;28;19908;-84
2023/03/11 03:04:02;;;;;;;;;;;2.20;1.00;;;;;;5092165;28;20262;-84
2023/03/11 03:06:56;;;;;;;;;;;2.20;1.00;;;;;;5076673;28;19966;-84
2023/03/11 03:09:44;;;;;;;;;;;2.20;1.00;;;;;;5093896;28;19913;-84
2023/03/11 03:12:38;;;;;;;;;;;2.20;1.00;;;;;;5075753;28;20014;-83
2023/03/11 03:15:38;;;;;;;;;;;2.10;1.00;;;;;;5094843;28;19916;-84
2023/03/11 03:18:14;;;;;;;;;;;2.10;1.00;;;;;;5095169;28;19913;-84
2023/03/11 03:20:44;;;;;;;;;;;2.00;1.00;;;;;;5079933;28;19957;-83
2023/03/11 03:23:34;;;;;;;;;;;2.00;1.00;;;;;;5094848;28;19912;-83
2023/03/11 03:29:03;;;;;;;;;;;2.00;1.00;;;;;;5094589;28;20004;-84
2023/03/11 03:31:28;;;;;;;;;;;2.10;1.00;;;;;;5063238;28;20306;-79
2023/03/11 03:34:02;;;;;;;;;;;2.10;1.00;;;;;;5094742;28;19978;-79
2023/03/11 03:36:56;;;;;;;;;;;2.10;1.00;;;;;;5094257;28;19915;-78
2023/03/11 03:39:26;;;;;;;;;;;2.20;1.00;;;;;;5094268;28;19908;-78
2023/03/11 03:41:56;;;;;;;;;;;2.20;1.00;;;;;;5091725;28;19922;-78
2023/03/11 03:44:32;;;;;;;;;;;2.20;1.00;;;;;;5089622;28;19912;-78
2023/03/11 03:46:58;;;;;;;;;;;2.20;1.00;;;;;;5088917;28;19923;-79
2023/03/11 03:49:23;;;;;;;;;;;2.20;1.00;;;;;;5094072;28;19920;-79
2023/03/11 03:51:50;;;;;;;;;;;2.20;1.00;;;;;;5071450;28;20474;-79
2023/03/11 03:54:20;;;;;;;;;;;2.30;1.00;;;;;;5069927;28;20025;-78
2023/03/11 03:56:46;;;;;;;;;;;2.30;1.00;;;;;;5064995;28;19909;-78
2023/03/11 03:59:44;;;;;;;;;;;2.30;1.00;;;;;;5074225;28;20275;-80
2023/03/11 04:02:20;;;;;;;;;;;2.30;1.00;;;;;;5072054;28;19957;-85
2023/03/11 04:07:56;;;;;;;;;;;2.30;1.00;;;;;;5092830;28;19918;-85
2023/03/11 04:10:38;;;;;;;;;;;2.30;1.00;;;;;;5094191;28;19912;-85
2023/03/11 04:13:04;;;;;;;;;;;2.30;1.00;;;;;;5086879;28;19915;-85
2023/03/11 04:18:33;;;;;;;;;;;2.30;1.00;;;;;;5094523;28;19923;-84
2023/03/11 04:20:59;;;;;;;;;;;2.30;1.00;;;;;;5094270;28;19999;-84
2023/03/11 04:23:44;;;;;;;;;;;2.30;1.00;;;;;;5078272;28;20403;-84
2023/03/11 04:26:14;;;;;;;;;;;2.20;1.00;;;;;;5098311;28;19937;-84
2023/03/11 04:28:56;;;;;;;;;;;2.30;1.00;;;;;;5098396;28;19909;-85
2023/03/11 04:34:25;;;;;;;;;;;2.30;1.00;;;;;;5086470;28;19915;-84
2023/03/11 04:36:52;;;;;;;;;;;2.40;1.00;;;;;;5079232;28;20379;-85
2023/03/11 04:39:38;;;;;;;;;;;2.40;1.00;;;;;;5098433;28;19912;-85
2023/03/11 04:42:32;;;;;;;;;;;2.40;1.00;;;;;;5098313;28;19908;-85
2023/03/11 04:44:58;;;;;;;;;;;2.50;1.00;;;;;;5092763;28;19916;-86
2023/03/11 04:47:23;;;;;;;;;;;2.40;1.00;;;;;;5068401;28;19916;-78
2023/03/11 04:49:49;;;;;;;;;;;2.40;1.00;;;;;;5091067;28;20274;-78
2023/03/11 04:52:26;;;;;;;;;;;2.50;1.00;;;;;;5071891;28;19913;-78
2023/03/11 04:54:52;;;;;;;;;;;2.50;1.00;;;;;;5095669;28;19912;-78
2023/03/11 04:57:26;;;;;;;;;;;2.50;1.00;;;;;;5079362;28;19912;-78
2023/03/11 05:00:05;;;;;;;;;;;2.50;1.00;;;;;;5078945;28;19913;-78
2023/03/11 05:02:56;;;;;;;;;;;2.50;1.00;;;;;;5095452;28;19916;-79
2023/03/11 05:05:44;;;;;;;;;;;2.60;1.00;;;;;;5074326;28;19912;-78
2023/03/11 05:08:21;;;;;;;;;;;2.50;1.00;;;;;;5096772;28;19912;-78
2023/03/11 05:10:56;;;;;;;;;;;2.50;1.00;;;;;;5097248;28;19950;-78
2023/03/11 05:13:26;;;;;;;;;;;2.40;1.00;;;;;;5097279;28;19909;-78
2023/03/11 05:15:52;;;;;;;;;;;2.30;1.00;;;;;;5097597;28;19954;-79
2023/03/11 05:18:38;;;;;;;;;;;2.30;1.00;;;;;;5087655;28;19931;-79
2023/03/11 05:21:04;;;;;;;;;;;2.20;1.00;;;;;;5091703;28;19912;-78
2023/03/11 05:23:32;;;;;;;;;;;2.30;1.00;;;;;;5095440;28;19915;-78
2023/03/11 05:25:58;;;;;;;;;;;2.30;1.00;;;;;;5090565;28;19912;-78
2023/03/11 05:28:26;;;;;;;;;;;2.30;1.00;;;;;;5079456;28;19908;-78
2023/03/11 05:30:56;;;;;;;;;;;2.50;1.00;;;;;;5078996;28;19939;-79
2023/03/11 05:33:31;;;;;;;;;;;2.50;1.00;;;;;;5096075;28;19908;-78
2023/03/11 05:36:04;;;;;;;;;;;2.60;1.00;;;;;;5089646;28;19962;-78
2023/03/11 05:38:44;;;;;;;;;;;2.70;1.00;;;;;;5096695;28;19908;-78
2023/03/11 05:41:14;;;;;;;;;;;2.70;1.00;;;;;;5096757;28;19908;-78
2023/03/11 05:43:44;;;;;;;;;;;2.80;1.00;;;;;;5096526;28;20007;-78
2023/03/11 05:46:26;;;;;;;;;;;2.80;1.00;;;;;;5096873;28;20347;-79
2023/03/11 05:48:52;;;;;;;;;;;2.90;1.00;;;;;;5095949;28;19980;-79
2023/03/11 05:51:17;;;;;;;;;;;2.90;1.00;;;;;;5091110;28;20415;-78
2023/03/11 05:53:51;;;;;;;;;;;2.70;1.00;;;;;;5096984;28;19908;-79
2023/03/11 05:56:21;;;;;;;;;;;2.70;1.00;;;;;;5095595;28;19908;-78
2023/03/11 05:58:57;;;;;;;;;;;2.60;1.00;;;;;;5092415;28;19919;-82
2023/03/11 06:01:26;;;;;;;;;;;2.50;1.00;;;;;;5090825;28;20345;-79
2023/03/11 06:03:52;;;;;;;;;;;2.50;1.00;;;;;;5077986;28;19912;-77
2023/03/11 06:06:18;;;;;;;;;;;2.50;1.00;;;;;;5098164;28;19919;-77
2023/03/11 06:08:50;;;;;;;;;;;2.40;1.00;;;;;;5086954;28;19913;-78
2023/03/11 06:14:19;;;;;;;;;;;2.30;1.00;;;;;;5092621;28;20405;-78
2023/03/11 06:20:04;;;;;;;;;;;2.30;1.00;;;;;;5095752;28;19914;-82
2023/03/11 06:22:32;;;;;;;;;;;2.30;1.00;;;;;;5075238;28;19912;-82
2023/03/11 06:24:58;;;;;;;;;;;2.30;1.00;;;;;;5095280;28;19915;-82
2023/03/11 06:27:24;;;;;;;;;;;2.30;1.00;;;;;;5094000;28;19912;-82
2023/03/11 06:29:56;;;;;;;;;;;2.30;1.00;;;;;;5094588;28;19998;-82
2023/03/11 06:32:28;;;;;;;;;;;2.30;1.00;;;;;;5095222;28;19912;-78
2023/03/11 06:35:03;;;;;;;;;;;2.30;1.00;;;;;;5095310;28;20346;-77
2023/03/11 06:37:34;;;;;;;;;;;2.40;1.00;;;;;;5079873;28;19916;-78
2023/03/11 06:40:14;;;;;;;;;;;2.50;1.00;;;;;;5086141;28;20416;-77
2023/03/11 06:42:51;;;;;;;;;;;2.60;1.00;;;;;;5095248;28;19956;-78
2023/03/11 06:45:20;;;;;;;;;;;2.60;1.00;;;;;;5093900;28;20057;-77
2023/03/11 06:47:46;;;;;;;;;;;2.70;1.00;;;;;;5094781;28;19942;-82
2023/03/11 06:50:27;;;;;;;;;;;2.80;1.00;;;;;;5084403;28;19924;-82
2023/03/11 06:52:57;;;;;;;;;;;2.80;1.00;;;;;;5095181;28;19958;-82
2023/03/11 06:58:25;;;;;;;;;;;2.90;1.00;;;;;;5080193;28;19961;-82
2023/03/11 07:01:04;;;;;;;;;;;2.90;1.00;;;;;;5094863;28;19917;-83
2023/03/11 07:03:33;;;;;;;;;;;3.00;1.00;;;;;;5087067;28;19943;-82
2023/03/11 07:06:26;;;;;;;;;;;3.00;1.00;;;;;;5094970;28;19911;-82
2023/03/11 07:09:28;;;;;;;;;;;3.00;1.00;;;;;;5090753;28;19913;-82
2023/03/11 07:12:08;;;;;;;;;;;2.90;1.00;;;;;;5056829;28;20286;-82
2023/03/11 07:14:56;;;;;;;;;;;2.80;1.00;;;;;;5080292;28;19912;-83
2023/03/11 07:17:27;;;;;;;;;;;2.80;1.00;;;;;;5094797;28;19908;-83
2023/03/11 07:20:09;;;;;;;;;;;2.80;1.00;;;;;;5093160;28;19915;-78
2023/03/11 07:22:50;;;;;;;;;;;2.80;1.00;;;;;;5094666;28;19909;-78
2023/03/11 07:25:26;;;;;;;;;;;2.80;1.00;;;;;;5084176;28;19962;-78
2023/03/11 07:27:56;;;;;;;;;;;2.80;1.00;;;;;;5074474;28;19935;-77
2023/03/11 07:30:39;;;;;;;;;;;2.80;1.00;;;;;;5071476;28;19940;-77
2023/03/11 07:33:14;;;;;;;;;;;2.70;1.00;;;;;;5094668;28;19908;-78
2023/03/11 07:38:45;;;;;;;;;;;2.70;1.00;;;;;;5094165;28;20034;-77
2023/03/11 07:41:26;;;;;;;;;;;2.90;1.00;;;;;;5072836;28;19916;-77
2023/03/11 07:43:54;;;;;;;;;;;3.00;1.00;;;;;;5062830;28;19912;-77
2023/03/11 07:46:21;;;;;;;;;;;3.10;1.00;;;;;;5094462;28;19908;-75
2023/03/11 07:48:51;;;;;;;;;;;3.20;1.00;;;;;;5090330;28;19939;-76
2023/03/11 07:51:17;;;;;;;;;;;3.30;1.00;;;;;;5094549;28;20387;-77
2023/03/11 07:53:57;;;;;;;;;;;3.40;1.00;;;;;;5094374;28;20005;-77
2023/03/11 07:56:28;;;;;;;;;;;3.50;1.00;;;;;;5075903;28;19908;-79
2023/03/11 07:58:57;;;;;;;;;;;3.70;1.00;;;;;;5094194;28;19908;-78
2023/03/11 08:01:24;;;;;;;;;;;3.90;1.00;;;;;;5094112;28;19951;-77
2023/03/11 08:04:10;;;;;;;;;;;4.00;1.00;;;;;;5065656;28;20292;-83
2023/03/11 08:06:40;;;;;;;;;;;4.00;1.00;;;;;;5074353;28;19912;-82
2023/03/11 08:09:07;;;;;;;;;;;4.00;1.00;;;;;;5065705;28;20808;-82
2023/03/11 08:11:56;;;;;;;;;;;4.20;1.00;;;;;;5067137;28;19919;-83
2023/03/11 08:14:27;;;;;;;;;;;4.30;1.00;;;;;;5060300;28;19912;-82
2023/03/11 08:16:56;;;;;;;;;;;4.30;1.00;;;;;;5093873;28;19919;-83
2023/03/11 08:19:32;;;;;;;;;;;4.20;1.00;;;;;;5094434;28;19914;-84
2023/03/11 08:22:08;;;;;;;;;;;4.20;1.00;;;;;;5094009;28;19915;-83
2023/03/11 08:27:44;;;;;;;;;;;4.20;1.00;;;;;;5093918;28;19915;-83
2023/03/11 08:36:17;;;;;;;;;;;4.30;1.00;;;;;;5086563;28;19915;-86
2023/03/11 08:41:58;;;;;;;;;;;5.30;1.00;;;;;;5094267;28;19915;-86
2023/03/11 08:44:44;;;;;;;;;;;5.30;1.00;;;;;;5068502;28;20358;-87
2023/03/11 08:47:10;;;;;;;;;;;5.40;1.00;;;;;;5058943;28;19913;-87
2023/03/11 08:52:38;;;;;;;;;;;5.50;1.00;;;;;;5093740;28;20059;-88
2023/03/11 08:58:14;;;;;;;;;;;6.00;1.00;;;;;;5093943;28;19931;-88
2023/03/11 09:00:56;;;;;;;;;;;6.20;1.00;;;;;;5072584;28;19957;-88
2023/03/11 09:03:34;;;;;;;;;;;6.20;1.00;;;;;;5062283;28;19914;-83
2023/03/11 09:09:02;;;;;;;;;;;7.10;1.00;;;;;;5095648;28;19958;-88
2023/03/11 09:11:56;;;;;;;;;;;6.90;1.00;;;;;;5066254;28;19938;-85
2023/03/11 09:20:28;;;;;;;;;;;6.80;1.00;;;;;;5097130;28;20279;-84
2023/03/11 09:22:56;;;;;;;;;;;6.90;1.00;;;;;;5072624;28;19912;-84
2023/03/11 09:25:22;;;;;;;;;;;6.90;1.00;;;;;;5075266;28;19916;-83
2023/03/11 09:27:50;;;;;;;;;;;7.20;1.00;;;;;;5096999;28;19955;-84
2023/03/11 09:30:26;;;;;;;;;;;7.00;1.00;;;;;;5065126;28;19962;-83
2023/03/11 09:32:56;;;;;;;;;;;7.00;1.00;;;;;;5096868;28;19942;-83
2023/03/11 09:35:38;;;;;;;;;;;7.00;1.00;;;;;;5061276;28;19958;-87
2023/03/11 09:38:09;;;;;;;;;;;6.80;1.00;;;;;;5059364;28;19951;-87
2023/03/11 09:46:56;;;;;;;;;;;6.90;1.00;;;;;;5088448;28;19981;-82
2023/03/11 09:49:21;;;;;;;;;;;6.90;1.00;;;;;;5096414;28;19924;-82
2023/03/11 09:52:08;;;;;;;;;;;6.90;1.00;;;;;;5096399;28;19914;-82
2023/03/11 09:54:46;;;;;;;;;;;6.90;1.00;;;;;;5076922;28;19908;-82
2023/03/11 09:57:15;;;;;;;;;;;7.00;1.00;;;;;;5086178;28;19916;-82
2023/03/11 09:59:45;;;;;;;;;;;7.00;1.00;;;;;;5086774;28;19912;-82
2023/03/11 10:02:44;;;;;;;;;;;6.90;1.00;;;;;;5072979;28;19941;-82
2023/03/11 10:05:29;;;;;;;;;;;6.80;1.00;;;;;;5086655;28;19920;-82
2023/03/11 10:08:02;;;;;;;;;;;6.50;1.00;;;;;;5075152;28;19912;-82
2023/03/11 10:13:44;;;;;;;;;;;6.10;1.00;;;;;;5088230;28;19959;-82
2023/03/11 10:16:34;;;;;;;;;;;6.00;1.00;;;;;;5091334;28;19915;-82
2023/03/11 10:19:26;;;;;;;;;;;5.90;1.00;;;;;;5095022;28;19912;-83
2023/03/11 10:22:14;;;;;;;;;;;6.10;1.00;;;;;;5075441;28;19919;-83
2023/03/11 10:25:03;;;;;;;;;;;6.50;1.00;;;;;;5084051;28;19920;-84
2023/03/11 10:27:45;;;;;;;;;;;7.00;1.00;;;;;;5071095;28;20003;-83
2023/03/11 10:33:34;;;;;;;;;;;7.60;1.00;;;;;;5086036;28;20329;-83
2023/03/11 10:39:27;;;;;;;;;;;7.70;1.00;;;;;;5075108;28;19916;-83
2023/03/11 10:42:00;;;;;;;;;;;7.80;1.00;;;;;;5091747;28;20367;-83
2023/03/11 10:44:37;;;;;;;;;;;7.80;1.00;;;;;;5075597;28;19943;-83
2023/03/11 10:47:03;;;;;;;;;;;7.70;1.00;;;;;;5063197;28;20271;-87
2023/03/11 10:49:45;;;;;;;;;;;7.70;1.00;;;;;;5095489;28;19923;-83
2023/03/11 10:52:20;;;;;;;;;;;7.70;1.00;;;;;;5064950;28;20426;-83
2023/03/11 10:54:59;;;;;;;;;;;7.90;1.00;;;;;;5065470;28;19912;-83
2023/03/11 10:57:28;;;;;;;;;;;8.10;1.00;;;;;;5078126;28;20461;-83
2023/03/11 11:00:26;;;;;;;;;;;8.40;1.00;;;;;;5077180;28;19908;-83
2023/03/11 11:03:26;;;;;;;;;;;8.50;1.00;;;;;;5094523;28;19912;-83
2023/03/11 11:06:27;;;;;;;;;;;8.70;1.00;;;;;;5070305;28;20333;-83
2023/03/11 11:12:16;;;;;;;;;;;8.70;1.00;;;;;;5083094;28;19965;-81
2023/03/11 11:15:08;;;;;;;;;;;8.30;1.00;;;;;;5082734;28;19970;-81
2023/03/11 11:17:39;;;;;;;;;;;8.20;1.00;;;;;;5073211;28;20370;-81
2023/03/11 11:20:26;;;;;;;;;;;8.20;1.00;;;;;;5094699;28;19995;-81
2023/03/11 11:23:03;;;;;;;;;;;8.20;1.00;;;;;;5080841;28;19912;-81
2023/03/11 11:25:50;;;;;;;;;;;8.30;1.00;;;;;;5094931;28;19957;-80
2023/03/11 11:28:27;;;;;;;;;;;8.10;1.00;;;;;;5085707;28;19908;-80
2023/03/11 11:31:29;;;;;;;;;;;8.10;1.00;;;;;;5092939;28;19924;-80
2023/03/11 11:34:14;;;;;;;;;;;8.00;1.00;;;;;;5027918;28;19913;-80
2023/03/11 11:36:58;;;;;;;;;;;7.80;1.00;;;;;;5031020;28;19913;-81
2023/03/11 11:39:29;;;;;;;;;;;7.70;1.00;;;;;;5006594;28;20045;-86
2023/03/11 11:41:57;;;;;;;;;;;7.60;1.00;;;;;;5028479;28;19963;-81
2023/03/11 11:44:42;;;;;;;;;;;7.30;1.00;;;;;;5029902;28;20021;-81
2023/03/11 11:47:18;;;;;;;;;;;7.60;1.00;;;;;;5031490;28;19914;-80
2023/03/11 11:50:08;;;;;;;;;;;7.20;1.00;;;;;;5015078;28;19921;-80
2023/03/11 11:52:39;;;;;;;;;;;7.30;1.00;;;;;;5024236;28;21328;-80
2023/03/11 11:55:15;;;;;;;;;;;7.50;1.00;;;;;;5016066;28;19920;-89
2023/03/11 11:57:56;;;;;;;;;;;7.60;1.00;;;;;;5028688;28;20373;-89
2023/03/11 12:00:28;;;;;;;;;;;7.50;1.00;;;;;;5033214;28;20008;-89
2023/03/11 12:03:26;;;;;;;;;;;7.60;1.00;;;;;;5024747;28;19921;-88
2023/03/11 12:06:26;;;;;;;;;;;7.60;1.00;;;;;;5032253;28;20015;-89
2023/03/11 12:08:52;;;;;;;;;;;7.60;1.00;;;;;;5052544;28;19919;-89
2023/03/11 12:11:27;;;;;;;;;;;7.70;1.00;;;;;;5087044;28;19999;-89
2023/03/11 12:14:26;;;;;;;;;;;7.60;1.00;;;;;;5086645;28;19910;-89
2023/03/11 12:16:56;;;;;;;;;;;7.80;1.00;;;;;;5092455;28;19916;-89
2023/03/11 12:19:56;;;;;;;;;;;8.00;1.00;;;;;;5092214;28;19916;-89
2023/03/11 12:25:34;;;;;;;;;;;8.10;1.00;;;;;;5081967;28;19920;-81
2023/03/11 12:28:32;;;;;;;;;;;8.30;1.00;;;;;;5092937;28;20389;-81
2023/03/11 12:31:10;;;;;;;;;;;8.60;1.00;;;;;;5087243;28;19916;-81
2023/03/11 12:33:46;;;;;;;;;;;8.80;1.00;;;;;;5090075;28;19919;-80
2023/03/11 12:36:26;;;;;;;;;;;8.80;1.00;;;;;;5088701;28;20329;-81
2023/03/11 12:39:29;;;;;;;;;;;8.70;1.00;;;;;;5089437;28;19939;-80
2023/03/11 12:42:21;;;;;;;;;;;8.80;1.00;;;;;;5007944;28;19913;-89
2023/03/11 12:45:14;;;;;;;;;;;8.80;1.00;;;;;;4993964;28;20387;-89
2023/03/11 12:47:40;;;;;;;;;;;8.90;1.00;;;;;;5016556;28;19913;-88
2023/03/11 12:53:15;;;;;;;;;;;8.80;1.00;;;;;;4998963;28;19967;-89
2023/03/11 12:56:17;;;;;;;;;;;8.40;1.00;;;;;;4999906;28;19921;-89
2023/03/11 12:58:51;;;;;;;;;;;8.80;1.00;;;;;;4921681;29;20374;-80
2023/03/11 13:01:39;;;;;;;;;;;8.70;1.00;;;;;;4935156;29;19926;-80
2023/03/11 13:04:13;;;;;;;;;;;8.90;1.00;;;;;;4930222;29;19911;-80
2023/03/11 13:06:45;;;;;;;;;;;9.10;1.00;;;;;;4937292;29;21762;-80
2023/03/11 13:09:15;;;;;;;;;;;9.10;1.00;;;;;;4937138;29;20359;-80
2023/03/11 13:11:46;;;;;;;;;;;9.10;1.00;;;;;;4937652;29;20324;-81
2023/03/11 13:14:18;;;;;;;;;;;9.10;1.00;;;;;;4935913;29;19977;-80
2023/03/11 13:16:45;;;;;;;;;;;9.10;1.00;;;;;;4998443;28;19916;-80
2023/03/11 13:19:32;;;;;;;;;;;8.90;1.00;;;;;;5014381;28;19976;-80
2023/03/11 13:22:26;;;;;;;;;;;8.80;1.00;;;;;;5012711;28;20446;-80
2023/03/11 13:24:57;;;;;;;;;;;8.80;1.00;;;;;;4998327;28;19944;-81
2023/03/11 13:27:57;;;;;;;;;;;8.80;1.00;;;;;;5010983;28;19996;-89
2023/03/11 13:30:56;;;;;;;;;;;8.70;1.00;;;;;;5002966;28;20440;-88
2023/03/11 13:33:57;;;;;;;;;;;8.70;1.00;;;;;;5073140;28;19916;-88
2023/03/11 13:36:39;;;;;;;;;;;8.60;1.00;;;;;;5094489;28;19957;-88
2023/03/11 13:42:13;;;;;;;;;;;8.20;1.00;;;;;;5097643;28;19954;-87
2023/03/11 13:44:39;;;;;;;;;;;8.10;1.00;;;;;;5094923;28;19909;-87
2023/03/11 13:50:27;;;;;;;;;;;7.80;1.00;;;;;;5108819;28;20319;-87
2023/03/11 13:52:58;;;;;;;;;;;7.60;1.00;;;;;;5092123;28;19943;-88
2023/03/11 13:55:34;;;;;;;;;;;7.40;1.00;;;;;;5087507;28;20263;-88
2023/03/11 13:58:22;;;;;;;;;;;7.40;1.00;;;;;;5062338;28;19913;-80
2023/03/11 14:01:15;;;;;;;;;;;7.40;1.00;;;;;;5096053;28;19908;-81
2023/03/11 14:03:41;;;;;;;;;;;7.70;1.00;;;;;;5085495;28;20367;-81
2023/03/11 14:06:18;;;;;;;;;;;7.80;1.00;;;;;;5073812;28;19963;-81
2023/03/11 14:08:51;;;;;;;;;;;7.90;1.00;;;;;;5094499;28;20362;-81
2023/03/11 14:11:30;;;;;;;;;;;7.80;1.00;;;;;;5096051;28;19916;-81
2023/03/11 14:23:15;;;;;;;;;;;7.70;1.00;;;;;;5080035;28;19920;-89
2023/03/11 14:25:58;;;;;;;;;;;7.70;1.00;;;;;;5065882;28;19915;-89
2023/03/11 14:28:51;;;;;;;;;;;7.60;1.00;;;;;;5093473;28;19912;-89
2023/03/11 14:34:38;;;;;;;;;;;7.60;1.00;;;;;;5095789;28;19931;-89
2023/03/11 14:43:47;;;;;;;;;;;7.90;1.00;;;;;;5096330;28;19947;-88
2023/03/11 14:46:28;;;;;;;;;;;8.10;1.00;;;;;;4994771;28;20320;-88
2023/03/11 14:48:55;;;;;;;;;;;8.40;1.00;;;;;;5005429;28;19918;-89
2023/03/11 14:51:30;;;;;;;;;;;8.40;1.00;;;;;;5000253;28;19920;-89
2023/03/11 14:54:05;;;;;;;;;;;8.70;1.00;;;;;;4994677;28;20377;-89
2023/03/11 14:57:03;;;;;;;;;;;8.70;1.00;;;;;;4998067;28;19999;-89
2023/03/11 14:59:56;;;;;;;;;;;8.70;1.00;;;;;;4995371;28;19948;-88
2023/03/11 15:02:56;;;;;;;;;;;8.70;1.00;;;;;;4997607;28;19913;-89
2023/03/11 15:05:26;;;;;;;;;;;8.80;1.00;;;;;;4996593;28;19925;-89
2023/03/11 15:07:59;;;;;;;;;;;8.80;1.00;;;;;;5002395;28;19984;-88
2023/03/11 15:10:27;;;;;;;;;;;8.80;1.00;;;;;;5001850;28;19918;-85
2023/03/11 15:13:17;;;;;;;;;;;8.60;1.00;;;;;;5013819;28;19960;-90
2023/03/11 15:16:01;;;;;;;;;;;8.70;1.00;;;;;;4998778;28;20282;-90
2023/03/11 15:31:13;;;;;;;;;;;8.70;1.00;;;;;;5094312;28;19922;-89
2023/03/11 15:34:09;;;;;;;;;;;8.50;1.00;;;;;;5077278;28;19957;-90
2023/03/11 15:36:38;;;;;;;;;;;8.20;1.00;;;;;;5077135;28;20383;-91
2023/03/11 15:39:29;;;;;;;;;;;8.40;1.00;;;;;;5077216;28;19958;-90
2023/03/11 15:42:27;;;;;;;;;;;8.30;1.00;;;;;;5073122;28;20007;-88
2023/03/11 15:45:09;;;;;;;;;;;8.90;1.00;;;;;;5066842;28;19968;-84
2023/03/11 15:47:57;;;;;;;;;;;9.60;1.00;;;;;;5076578;28;19942;-84
2023/03/11 15:50:27;;;;;;;;;;;10.10;1.00;;;;;;5059600;28;20283;-83
2023/03/11 15:53:03;;;;;;;;;;;10.80;1.00;;;;;;5075032;28;19913;-80
2023/03/11 15:55:29;;;;;;;;;;;11.30;1.00;;;;;;5093704;28;19908;-81
2023/03/11 15:58:00;;;;;;;;;;;12.70;1.00;;;;;;5090289;28;19957;-81
2023/03/11 16:00:25;;;;;;;;;;;13.50;1.00;;;;;;5081876;28;19936;-80
2023/03/11 16:02:57;;;;;;;;;;;14.20;1.00;;;;;;5092934;28;19925;-81
2023/03/11 16:05:27;;;;;;;;;;;14.80;1.00;;;;;;5088471;28;19916;-82
2023/03/11 16:07:57;;;;;;;;;;;14.60;1.00;;;;;;5092545;28;19908;-80
2023/03/11 16:10:27;;;;;;;;;;;14.10;1.00;;;;;;5100974;28;19916;-80
2023/03/11 16:12:57;;;;;;;;;;;13.40;1.00;;;;;;5087957;28;19908;-79
2023/03/11 16:15:27;;;;;;;;;;;12.60;1.00;;;;;;5093674;28;19922;-79
2023/03/11 16:17:59;;;;;;;;;;;12.10;1.00;;;;;;5094160;28;20002;-79
2023/03/11 16:20:29;;;;;;;;;;;12.00;1.00;;;;;;5091732;28;19918;-80
2023/03/11 16:22:57;;;;;;;;;;;12.00;1.00;;;;;;5085137;28;19919;-80
2023/03/11 16:25:32;;;;;;;;;;;11.80;1.00;;;;;;5093524;28;19919;-79
2023/03/11 16:28:11;;;;;;;;;;;11.80;1.00;;;;;;5089335;28;19916;-76
2023/03/11 16:30:37;;;;;;;;;;;11.80;1.00;;;;;;5097693;28;19920;-77
2023/03/11 16:33:09;;;;;;;;;;;11.90;1.00;;;;;;5098060;28;19961;-77
2023/03/11 16:35:51;;;;;;;;;;;11.70;1.00;;;;;;5095923;28;19911;-78
2023/03/11 16:38:27;;;;;;;;;;;11.40;1.00;;;;;;5086677;28;19919;-77
2023/03/11 16:40:58;;;;;;;;;;;11.10;1.00;;;;;;5085334;28;19908;-78
2023/03/11 16:43:28;;;;;;;;;;;10.60;1.00;;;;;;5097127;28;19962;-77
2023/03/11 16:45:57;;;;;;;;;;;10.20;1.00;;;;;;5075747;28;19954;-79
2023/03/11 16:48:27;;;;;;;;;;;9.80;1.00;;;;;;5078639;28;19916;-80
2023/03/11 16:50:57;;;;;;;;;;;9.50;1.00;;;;;;5076832;28;19931;-78
2023/03/11 16:53:27;;;;;;;;;;;8.90;1.00;;;;;;5090618;28;19970;-80
2023/03/11 16:55:57;;;;;;;;;;;8.50;1.00;;;;;;5100569;28;19912;-79
2023/03/11 16:58:27;;;;;;;;;;;8.20;1.00;;;;;;5075518;28;21766;-80
2023/03/11 17:01:03;;;;;;;;;;;7.90;1.00;;;;;;5067714;28;19920;-76
2023/03/11 17:03:39;;;;;;;;;;;7.70;1.00;;;;;;5092593;28;20007;-76
2023/03/11 17:06:05;;;;;;;;;;;7.40;1.00;;;;;;5089905;28;19912;-76
2023/03/11 17:08:30;;;;;;;;;;;7.00;1.00;;;;;;5089349;28;20340;-76
2023/03/11 17:10:57;;;;;;;;;;;6.80;1.00;;;;;;5078759;28;19961;-77
2023/03/11 17:13:27;;;;;;;;;;;6.50;1.00;;;;;;5094233;28;19912;-77
2023/03/11 17:19:09;;;;;;;;;;;6.00;1.00;;;;;;5080895;28;20405;-80
2023/03/11 17:22:03;;;;;;;;;;;5.60;1.00;;;;;;5089770;28;19989;-81
2023/03/11 17:27:33;;;;;;;;;;;5.10;1.00;;;;;;5082028;28;19999;-82
2023/03/11 17:30:04;;;;;;;;;;;4.90;1.00;;;;;;5088896;28;19958;-78
2023/03/11 17:32:30;;;;;;;;;;;4.70;1.00;;;;;;5096844;28;19961;-78
2023/03/11 17:35:27;;;;;;;;;;;4.60;1.00;;;;;;5096354;28;19908;-78
2023/03/11 17:38:15;;;;;;;;;;;4.40;1.00;;;;;;5085282;28;19917;-77
2023/03/11 17:40:51;;;;;;;;;;;4.20;1.00;;;;;;5086535;28;19915;-78
2023/03/11 17:43:33;;;;;;;;;;;4.10;1.00;;;;;;5096308;28;19915;-78
2023/03/11 17:46:27;;;;;;;;;;;4.00;1.00;;;;;;5096865;28;19951;-77
2023/03/11 17:49:21;;;;;;;;;;;3.80;1.00;;;;;;5095456;28;19916;-78
2023/03/11 17:51:57;;;;;;;;;;;3.70;1.00;;;;;;5096520;28;19924;-81
2023/03/11 17:54:33;;;;;;;;;;;3.60;1.00;;;;;;5096571;28;19916;-79
2023/03/11 17:56:58;;;;;;;;;;;3.40;1.00;;;;;;5096073;28;19985;-78
2023/03/11 17:59:24;;;;;;;;;;;3.20;1.00;;;;;;5096320;28;19908;-78